createdAt,value
2024-05-09T00:01:14.654Z,9.34
2024-05-09T00:03:44.597Z,9.31
2024-05-09T00:06:19.081Z,9.29
2024-05-09T00:08:46.380Z,9.25
2024-05-09T00:11:25.406Z,9.20
2024-05-09T00:13:51.999Z,9.20
2024-05-09T00:16:18.839Z,9.18
2024-05-09T00:18:45.576Z,9.13
2024-05-09T00:21:13.825Z,9.09
2024-05-09T00:23:40.542Z,9.01
2024-05-09T00:26:07.496Z,9.00
2024-05-09T00:28:37.059Z,8.92
2024-05-09T00:31:03.693Z,8.83
2024-05-09T00:33:33.411Z,8.88
2024-05-09T00:36:00.018Z,8.86
2024-05-09T00:38:26.619Z,8.80
2024-05-09T00:41:02.183Z,8.71
2024-05-09T00:43:28.732Z,8.63
2024-05-09T00:45:59.356Z,8.61
2024-05-09T00:48:27.082Z,8.60
2024-05-09T00:50:56.348Z,8.58
2024-05-09T00:53:29.675Z,8.52
2024-05-09T00:55:57.853Z,8.46
2024-05-09T00:58:32.473Z,8.45
2024-05-09T01:01:08.259Z,8.44
2024-05-09T01:03:35.092Z,8.46
2024-05-09T01:06:09.087Z,8.43
2024-05-09T01:08:39.109Z,8.37
2024-05-09T01:11:07.787Z,8.37
2024-05-09T01:13:34.355Z,8.32
2024-05-09T01:16:01.127Z,8.29
2024-05-09T01:18:27.825Z,8.25
2024-05-09T01:23:39.269Z,8.16
2024-05-09T01:26:08.965Z,8.16
2024-05-09T01:31:18.736Z,8.01
2024-05-09T01:33:51.508Z,8.00
2024-05-09T01:36:18.454Z,7.91
2024-05-09T01:38:48.971Z,7.87
2024-05-09T01:41:15.577Z,7.88
2024-05-09T01:43:42.553Z,7.94
2024-05-09T01:46:19.480Z,7.96
2024-05-09T01:48:49.664Z,7.92
2024-05-09T01:51:19.350Z,7.85
2024-05-09T01:53:46.017Z,7.77
2024-05-09T01:56:26.059Z,7.77
2024-05-09T01:58:57.051Z,7.74
2024-05-09T02:01:26.689Z,7.72
2024-05-09T02:03:53.415Z,7.64
2024-05-09T02:06:20.298Z,7.60
2024-05-09T02:08:52.656Z,7.69
2024-05-09T02:11:19.596Z,7.62
2024-05-09T02:13:47.103Z,7.55
2024-05-09T02:16:14.596Z,7.52
2024-05-09T02:18:41.954Z,7.46
2024-05-09T02:21:18.527Z,7.43
2024-05-09T02:23:46.386Z,7.46
2024-05-09T02:26:13.675Z,7.46
2024-05-09T02:28:40.342Z,7.37
2024-05-09T02:31:06.848Z,7.32
2024-05-09T02:33:41.745Z,7.24
2024-05-09T02:36:09.213Z,7.25
2024-05-09T02:38:46.049Z,7.22
2024-05-09T02:41:12.572Z,7.23
2024-05-09T02:43:42.996Z,7.24
2024-05-09T02:46:09.608Z,7.20
2024-05-09T02:48:36.314Z,7.11
2024-05-09T02:51:06.427Z,7.08
2024-05-09T02:53:36.046Z,7.09
2024-05-09T02:56:08.013Z,7.09
2024-05-09T02:58:37.690Z,7.07
2024-05-09T03:01:04.437Z,7.01
2024-05-09T03:03:34.272Z,7.04
2024-05-09T03:06:02.050Z,7.01
2024-05-09T03:08:28.981Z,7.00
2024-05-09T03:10:58.900Z,6.99
2024-05-09T03:13:29.082Z,6.95
2024-05-09T03:15:59.777Z,6.99
2024-05-09T03:18:29.592Z,6.96
2024-05-09T03:20:58.766Z,6.93
2024-05-09T03:23:25.366Z,6.91
2024-05-09T03:25:54.226Z,6.89
2024-05-09T03:31:08.654Z,6.76
2024-05-09T03:33:35.992Z,6.72
2024-05-09T03:36:05.581Z,6.70
2024-05-09T03:38:42.602Z,6.71
2024-05-09T03:41:14.975Z,6.73
2024-05-09T03:43:43.765Z,6.68
2024-05-09T03:46:10.307Z,6.65
2024-05-09T03:48:42.055Z,6.60
2024-05-09T03:51:08.776Z,6.59
2024-05-09T03:53:39.054Z,6.60
2024-05-09T03:56:09.076Z,6.59
2024-05-09T03:58:35.892Z,6.57
2024-05-09T04:01:05.620Z,6.58
2024-05-09T04:03:34.083Z,6.63
2024-05-09T04:06:03.877Z,6.61
2024-05-09T04:08:33.507Z,6.57
2024-05-09T04:11:00.077Z,6.62
2024-05-09T04:13:26.926Z,6.69
2024-05-09T04:15:53.439Z,6.76
2024-05-09T04:18:20.077Z,6.80
2024-05-09T04:20:46.703Z,6.85
2024-05-09T04:23:14.682Z,6.87
2024-05-09T04:25:45.678Z,6.95
2024-05-09T04:28:12.985Z,7.03
2024-05-09T04:30:45.791Z,7.13
2024-05-09T04:33:15.081Z,7.22
2024-05-09T04:35:48.275Z,7.35
2024-05-09T04:38:15.781Z,7.69
2024-05-09T04:40:43.275Z,8.77
2024-05-09T04:43:18.593Z,9.82
2024-05-09T04:45:55.826Z,10.47
2024-05-09T04:48:22.867Z,11.10
2024-05-09T04:50:50.016Z,11.73
2024-05-09T04:53:19.746Z,12.30
2024-05-09T04:55:46.394Z,13.01
2024-05-09T04:58:15.959Z,13.54
2024-05-09T05:00:45.660Z,13.77
2024-05-09T05:03:19.063Z,13.97
2024-05-09T05:05:46.366Z,14.29
2024-05-09T05:08:19.871Z,14.79
2024-05-09T05:10:50.500Z,15.29
2024-05-09T05:13:22.835Z,15.34
2024-05-09T05:15:58.360Z,15.59
2024-05-09T05:18:28.611Z,15.65
2024-05-09T05:20:58.390Z,16.11
2024-05-09T05:23:26.118Z,16.38
2024-05-09T05:25:56.836Z,16.61
2024-05-09T05:28:23.673Z,16.65
2024-05-09T05:30:59.783Z,17.21
2024-05-09T05:33:26.510Z,17.15
2024-05-09T05:36:02.590Z,17.14
2024-05-09T05:38:32.614Z,17.06
2024-05-09T05:40:59.538Z,17.19
2024-05-09T05:43:26.468Z,17.31
2024-05-09T05:45:53.010Z,17.68
2024-05-09T05:48:23.109Z,17.91
2024-05-09T05:50:49.883Z,18.45
2024-05-09T05:53:16.609Z,18.89
2024-05-09T05:55:47.103Z,19.01
2024-05-09T05:58:14.775Z,19.34
2024-05-09T06:00:42.396Z,19.51
2024-05-09T06:03:11.550Z,19.82
2024-05-09T06:05:43.679Z,20.17
2024-05-09T06:08:14.257Z,20.34
2024-05-09T06:10:41.842Z,20.67
2024-05-09T06:13:12.792Z,20.32
2024-05-09T06:15:44.062Z,20.76
2024-05-09T06:18:12.218Z,20.77
2024-05-09T06:20:41.863Z,21.03
2024-05-09T06:23:11.801Z,21.39
2024-05-09T06:25:39.183Z,21.76
2024-05-09T06:28:08.973Z,21.38
2024-05-09T06:30:42.654Z,21.43
2024-05-09T06:33:15.834Z,21.82
2024-05-09T06:35:44.929Z,21.78
2024-05-09T06:38:14.801Z,21.66
2024-05-09T06:40:43.685Z,21.51
2024-05-09T06:43:19.482Z,21.88
2024-05-09T06:45:52.856Z,22.00
2024-05-09T06:48:22.078Z,21.92
2024-05-09T06:50:50.855Z,22.26
2024-05-09T06:53:24.551Z,22.15
2024-05-09T06:55:51.703Z,22.41
2024-05-09T06:58:18.287Z,23.14
2024-05-09T07:00:50.980Z,22.96
2024-05-09T07:06:04.217Z,22.91
2024-05-09T07:08:33.824Z,22.35
2024-05-09T07:11:01.488Z,20.53
2024-05-09T07:13:34.478Z,19.47
2024-05-09T07:16:00.984Z,19.14
2024-05-09T07:18:28.060Z,18.90
2024-05-09T07:20:58.195Z,18.83
2024-05-09T07:23:24.918Z,18.81
2024-05-09T07:25:55.318Z,18.74
2024-05-09T07:28:21.900Z,18.75
2024-05-09T07:30:48.638Z,18.60
2024-05-09T07:33:20.897Z,18.58
2024-05-09T07:35:49.634Z,18.24
2024-05-09T07:38:16.557Z,18.26
2024-05-09T07:40:43.288Z,18.00
2024-05-09T07:43:13.896Z,17.89
2024-05-09T07:45:52.395Z,18.04
2024-05-09T07:50:00.307Z,18.07
2024-05-09T07:53:49.913Z,18.05
2024-05-09T07:56:23.043Z,18.12
2024-05-09T07:58:52.991Z,18.13
2024-05-09T08:01:20.057Z,18.21
2024-05-09T08:03:49.789Z,18.28
2024-05-09T08:06:16.635Z,18.40
2024-05-09T08:08:46.855Z,18.45
2024-05-09T08:11:25.586Z,18.56
2024-05-09T08:13:52.271Z,18.62
2024-05-09T08:16:22.084Z,18.64
2024-05-09T08:18:48.828Z,18.79
2024-05-09T08:21:15.423Z,18.61
2024-05-09T08:23:41.976Z,18.56
2024-05-09T08:26:08.465Z,18.46
2024-05-09T08:28:38.585Z,18.62
2024-05-09T08:31:07.969Z,18.78
2024-05-09T08:33:44.136Z,18.68
2024-05-09T08:36:13.840Z,18.52
2024-05-09T08:38:44.082Z,18.59
2024-05-09T08:41:15.419Z,18.81
2024-05-09T08:43:44.342Z,18.65
2024-05-09T08:46:16.592Z,18.90
2024-05-09T08:48:48.057Z,19.23
2024-05-09T08:54:00.429Z,19.76
2024-05-09T08:56:34.424Z,20.04
2024-05-09T08:59:02.097Z,20.10
2024-05-09T09:01:33.757Z,20.20
2024-05-09T09:04:07.163Z,20.06
2024-05-09T09:06:37.276Z,20.19
2024-05-09T09:12:10.173Z,20.87
2024-05-09T09:14:40.325Z,21.34
2024-05-09T09:17:19.383Z,20.92
2024-05-09T09:19:45.987Z,21.32
2024-05-09T09:22:21.786Z,21.56
2024-05-09T09:24:48.776Z,21.96
2024-05-09T09:27:24.430Z,22.16
2024-05-09T09:29:50.991Z,21.89
2024-05-09T09:32:28.644Z,21.38
2024-05-09T09:34:56.589Z,21.64
2024-05-09T09:37:32.266Z,21.63
2024-05-09T09:39:59.335Z,21.87
2024-05-09T09:42:35.368Z,22.09
2024-05-09T09:45:10.476Z,21.53
2024-05-09T09:47:39.956Z,20.86
2024-05-09T09:50:14.558Z,20.40
2024-05-09T09:52:44.577Z,20.40
2024-05-09T09:55:19.851Z,20.15
2024-05-09T09:57:49.069Z,20.11
2024-05-09T10:00:24.076Z,20.16
2024-05-09T10:02:54.509Z,20.19
2024-05-09T10:05:27.053Z,20.29
2024-05-09T10:07:55.467Z,20.31
2024-05-09T10:10:33.266Z,19.92
2024-05-09T10:13:11.054Z,19.76
2024-05-09T10:15:56.806Z,19.94
2024-05-09T10:18:30.174Z,20.17
2024-05-09T10:20:59.440Z,20.34
2024-05-09T10:23:31.022Z,20.73
2024-05-09T10:26:08.531Z,21.28
2024-05-09T10:28:43.404Z,21.25
2024-05-09T10:31:11.937Z,21.35
2024-05-09T10:33:55.114Z,21.55
2024-05-09T10:36:22.596Z,21.28
2024-05-09T10:38:50.835Z,20.73
2024-05-09T10:41:25.920Z,21.00
2024-05-09T10:43:52.477Z,21.30
2024-05-09T10:46:22.226Z,21.22
2024-05-09T10:48:49.239Z,21.73
2024-05-09T10:51:24.508Z,21.55
2024-05-09T10:53:52.489Z,21.93
2024-05-09T10:56:19.288Z,21.69
2024-05-09T10:58:57.409Z,22.17
2024-05-09T11:04:12.243Z,22.37
2024-05-09T11:06:39.666Z,22.50
2024-05-09T11:09:06.854Z,22.27
2024-05-09T11:11:33.982Z,22.01
2024-05-09T11:14:14.293Z,21.81
2024-05-09T11:16:43.601Z,22.33
2024-05-09T11:19:17.747Z,22.88
2024-05-09T11:21:51.729Z,22.99
2024-05-09T11:24:21.749Z,22.56
2024-05-09T11:26:49.368Z,22.90
2024-05-09T11:29:19.256Z,22.90
2024-05-09T11:31:49.685Z,23.04
2024-05-09T11:34:16.410Z,22.80
2024-05-09T11:36:44.403Z,22.72
2024-05-09T11:39:14.006Z,22.82
2024-05-09T11:41:40.537Z,22.73
2024-05-09T11:44:13.081Z,22.61
2024-05-09T11:46:39.958Z,22.57
2024-05-09T11:49:14.139Z,22.58
2024-05-09T11:51:43.907Z,22.59
2024-05-09T11:54:18.293Z,22.61
2024-05-09T11:56:44.912Z,22.70
2024-05-09T11:59:11.592Z,22.69
2024-05-09T12:01:47.409Z,22.37
2024-05-09T12:04:14.237Z,22.36
2024-05-09T12:06:49.965Z,22.39
2024-05-09T12:09:16.755Z,22.39
2024-05-09T12:11:44.440Z,22.31
2024-05-09T12:14:14.027Z,22.13
2024-05-09T12:16:41.244Z,22.27
2024-05-09T12:19:10.894Z,22.51
2024-05-09T12:21:37.546Z,22.61
2024-05-09T12:24:04.179Z,22.58
2024-05-09T12:26:33.902Z,22.27
2024-05-09T12:29:02.416Z,21.82
2024-05-09T12:31:29.253Z,21.83
2024-05-09T12:34:02.547Z,22.03
2024-05-09T12:36:30.669Z,22.03
2024-05-09T12:39:11.122Z,21.90
2024-05-09T12:42:02.380Z,21.80
2024-05-09T12:44:28.880Z,21.77
2024-05-09T12:46:55.484Z,21.88
2024-05-09T12:49:30.428Z,22.37
2024-05-09T12:51:57.120Z,22.66
2024-05-09T12:54:23.662Z,22.80
2024-05-09T12:56:54.282Z,22.80
2024-05-09T12:59:20.805Z,22.83
2024-05-09T13:01:53.355Z,22.67
2024-05-09T13:04:20.071Z,22.26
2024-05-09T13:06:49.481Z,22.35
2024-05-09T13:09:22.652Z,22.51
2024-05-09T13:11:49.297Z,21.99
2024-05-09T13:14:25.444Z,22.00
2024-05-09T13:16:51.964Z,22.14
2024-05-09T13:19:19.196Z,22.64
2024-05-09T13:21:49.330Z,22.74
2024-05-09T13:24:16.167Z,22.29
2024-05-09T13:26:51.982Z,22.33
2024-05-09T13:29:26.717Z,22.19
2024-05-09T13:31:56.505Z,21.82
2024-05-09T13:34:26.348Z,21.68
2024-05-09T13:36:57.009Z,21.74
2024-05-09T13:39:23.658Z,22.02
2024-05-09T13:41:50.213Z,22.20
2024-05-09T13:44:19.814Z,22.00
2024-05-09T13:46:46.648Z,21.67
2024-05-09T13:49:17.442Z,21.63
2024-05-09T13:51:44.209Z,21.47
2024-05-09T13:54:10.775Z,21.51
2024-05-09T13:56:37.750Z,21.30
2024-05-09T13:59:07.216Z,21.45
2024-05-09T14:01:33.807Z,21.54
2024-05-09T14:04:05.160Z,21.47
2024-05-09T14:06:31.987Z,21.28
2024-05-09T14:08:58.651Z,21.17
2024-05-09T14:11:28.283Z,21.13
2024-05-09T14:13:57.674Z,21.28
2024-05-09T14:16:27.462Z,21.28
2024-05-09T14:18:54.347Z,21.40
2024-05-09T14:21:24.669Z,21.52
2024-05-09T14:24:00.000Z,21.35
2024-05-09T14:26:26.986Z,21.34
2024-05-09T14:28:57.114Z,21.23
2024-05-09T14:31:26.991Z,21.45
2024-05-09T14:34:15.000Z,21.57
2024-05-09T14:36:42.118Z,21.67
2024-05-09T14:39:11.795Z,21.69
2024-05-09T14:41:41.385Z,21.68
2024-05-09T14:44:10.198Z,21.75
2024-05-09T14:46:36.727Z,21.79
2024-05-09T14:49:04.503Z,21.76
2024-05-09T14:51:31.716Z,21.81
2024-05-09T14:54:01.911Z,21.69
2024-05-09T14:56:41.725Z,21.97
2024-05-09T14:59:13.960Z,22.51
2024-05-09T15:01:43.615Z,22.79
2024-05-09T15:04:15.252Z,22.48
2024-05-09T15:06:45.209Z,22.45
2024-05-09T15:09:14.181Z,22.48
2024-05-09T15:11:47.507Z,22.52
2024-05-09T15:14:14.347Z,22.24
2024-05-09T15:16:42.724Z,21.58
2024-05-09T15:19:12.523Z,21.25
2024-05-09T15:21:46.742Z,21.03
2024-05-09T15:24:13.250Z,20.95
2024-05-09T15:26:39.773Z,20.92
2024-05-09T15:29:09.844Z,21.01
2024-05-09T15:31:36.381Z,20.94
2024-05-09T15:34:03.011Z,20.86
2024-05-09T15:36:33.161Z,20.71
2024-05-09T15:39:02.934Z,20.61
2024-05-09T15:41:32.728Z,20.56
2024-05-09T15:44:01.471Z,20.63
2024-05-09T15:46:28.141Z,20.59
2024-05-09T15:49:04.399Z,20.52
2024-05-09T15:51:31.075Z,20.28
2024-05-09T15:53:57.938Z,20.33
2024-05-09T15:56:24.526Z,20.09
2024-05-09T15:58:51.085Z,20.01
2024-05-09T16:01:17.715Z,20.06
2024-05-09T16:03:47.294Z,19.94
2024-05-09T16:06:17.260Z,19.95
2024-05-09T16:08:49.630Z,19.85
2024-05-09T16:11:20.771Z,19.87
2024-05-09T16:13:50.029Z,19.69
2024-05-09T16:16:26.026Z,19.59
2024-05-09T16:19:02.041Z,19.55
2024-05-09T16:21:31.575Z,19.42
2024-05-09T16:23:59.139Z,19.31
2024-05-09T16:26:26.574Z,19.30
2024-05-09T16:28:53.171Z,19.21
2024-05-09T16:31:22.570Z,19.19
2024-05-09T16:33:49.227Z,19.24
2024-05-09T16:36:16.258Z,19.23
2024-05-09T16:38:45.692Z,19.18
2024-05-09T16:41:15.502Z,19.15
2024-05-09T16:43:44.874Z,19.14
2024-05-09T16:46:13.876Z,19.03
2024-05-09T16:48:45.125Z,18.93
2024-05-09T16:51:18.072Z,18.95
2024-05-09T16:53:45.833Z,18.98
2024-05-09T16:56:15.544Z,18.79
2024-05-09T16:58:42.458Z,18.63
2024-05-09T17:01:12.602Z,18.61
2024-05-09T17:03:43.341Z,18.56
2024-05-09T17:06:10.612Z,18.44
2024-05-09T17:08:47.224Z,18.54
2024-05-09T17:11:18.680Z,18.66
2024-05-09T17:13:50.422Z,18.52
2024-05-09T17:16:20.999Z,18.52
2024-05-09T17:18:51.004Z,18.55
2024-05-09T17:21:17.806Z,18.62
2024-05-09T17:23:49.265Z,18.68
2024-05-09T17:26:15.802Z,18.67
2024-05-09T17:28:42.491Z,18.59
2024-05-09T17:31:12.359Z,18.53
2024-05-09T17:33:42.869Z,18.52
2024-05-09T17:36:12.231Z,18.50
2024-05-09T17:38:40.986Z,18.33
2024-05-09T17:41:07.607Z,18.30
2024-05-09T17:43:34.583Z,18.26
2024-05-09T17:46:01.376Z,18.24
2024-05-09T17:48:28.089Z,18.22
2024-05-09T17:50:54.684Z,18.06
2024-05-09T17:53:30.333Z,17.95
2024-05-09T17:55:56.929Z,17.82
2024-05-09T17:58:32.157Z,17.66
2024-05-09T18:00:58.878Z,17.55
2024-05-09T18:03:27.266Z,17.43
2024-05-09T18:05:58.648Z,17.32
2024-05-09T18:08:27.217Z,17.22
2024-05-09T18:10:58.909Z,17.11
2024-05-09T18:13:27.246Z,17.01
2024-05-09T18:15:57.024Z,16.98
2024-05-09T18:18:23.717Z,16.90
2024-05-09T18:20:50.564Z,16.84
2024-05-09T18:23:20.436Z,16.76
2024-05-09T18:26:01.653Z,16.71
2024-05-09T18:28:31.095Z,16.64
2024-05-09T18:31:00.357Z,16.58
2024-05-09T18:33:27.045Z,16.55
2024-05-09T18:35:53.701Z,16.51
2024-05-09T18:38:27.921Z,16.47
2024-05-09T18:40:57.537Z,16.44
2024-05-09T18:43:31.176Z,16.42
2024-05-09T18:46:03.254Z,16.37
2024-05-09T18:48:32.693Z,16.30
2024-05-09T18:51:02.016Z,16.26
2024-05-09T18:53:28.629Z,16.22
2024-05-09T18:55:58.422Z,16.20
2024-05-09T18:58:25.043Z,16.14
2024-05-09T19:00:54.283Z,16.12
2024-05-09T19:03:22.551Z,16.09
2024-05-09T19:05:49.714Z,16.05
2024-05-09T19:08:16.536Z,16.07
2024-05-09T19:10:46.568Z,16.04
2024-05-09T19:13:14.352Z,16.02
2024-05-09T19:15:43.759Z,15.97
2024-05-09T19:18:20.656Z,15.94
2024-05-09T19:20:55.631Z,15.91
2024-05-09T19:23:22.307Z,15.87
2024-05-09T19:25:55.571Z,15.84
2024-05-09T19:28:25.961Z,15.82
2024-05-09T19:31:00.908Z,15.76
2024-05-09T19:33:27.585Z,15.72
2024-05-09T19:36:00.181Z,15.67
2024-05-09T19:38:26.714Z,15.63
2024-05-09T19:40:53.427Z,15.60
2024-05-09T19:43:23.571Z,15.57
2024-05-09T19:45:50.332Z,15.54
2024-05-09T19:48:17.133Z,15.47
2024-05-09T19:50:53.682Z,15.40
2024-05-09T19:53:20.382Z,15.38
2024-05-09T19:55:48.103Z,15.35
2024-05-09T19:58:17.786Z,15.25
2024-05-09T20:00:45.071Z,15.19
2024-05-09T20:03:14.324Z,15.14
2024-05-09T20:05:46.643Z,15.09
2024-05-09T20:08:17.541Z,15.04
2024-05-09T20:10:48.068Z,14.97
2024-05-09T20:13:20.271Z,14.90
2024-05-09T20:15:50.775Z,14.81
2024-05-09T20:18:19.668Z,14.72
2024-05-09T20:20:53.403Z,14.67
2024-05-09T20:23:21.152Z,14.60
2024-05-09T20:25:50.669Z,14.54
2024-05-09T20:28:17.321Z,14.44
2024-05-09T20:30:47.539Z,14.38
2024-05-09T20:33:17.037Z,14.32
2024-05-09T20:35:43.561Z,14.25
2024-05-09T20:38:11.270Z,14.19
2024-05-09T20:40:41.120Z,14.15
2024-05-09T20:43:12.158Z,14.07
2024-05-09T20:45:42.238Z,13.97
2024-05-09T20:48:09.818Z,13.90
2024-05-09T20:50:41.979Z,13.81
2024-05-09T20:53:15.666Z,13.74
2024-05-09T20:55:48.222Z,13.68
2024-05-09T20:58:17.350Z,13.61
2024-05-09T21:00:45.743Z,13.54
2024-05-09T21:03:17.650Z,13.50
2024-05-09T21:05:48.602Z,13.44
2024-05-09T21:08:19.725Z,13.43
2024-05-09T21:10:50.411Z,13.40
2024-05-09T21:13:17.334Z,13.35
2024-05-09T21:15:44.287Z,13.28
2024-05-09T21:18:20.295Z,13.22
2024-05-09T21:20:55.964Z,13.16
2024-05-09T21:23:22.688Z,13.12
2024-05-09T21:25:49.209Z,13.12
2024-05-09T21:28:19.407Z,13.10
2024-05-09T21:30:46.116Z,13.05
2024-05-09T21:33:14.297Z,13.02
2024-05-09T21:35:46.952Z,12.99
2024-05-09T21:38:14.607Z,12.98
2024-05-09T21:40:49.597Z,12.94
2024-05-09T21:43:17.878Z,12.93
2024-05-09T21:45:57.546Z,12.90
2024-05-09T21:48:25.544Z,12.87
2024-05-09T21:50:55.389Z,12.81
2024-05-09T21:53:21.930Z,12.80
2024-05-09T21:55:51.709Z,12.80
2024-05-09T21:58:21.645Z,12.78
2024-05-09T22:00:49.152Z,12.79
2024-05-09T22:03:26.546Z,12.77
2024-05-09T22:05:53.484Z,12.77
2024-05-09T22:08:20.001Z,12.78
2024-05-09T22:10:46.608Z,12.77
2024-05-09T22:13:13.542Z,12.71
2024-05-09T22:15:44.092Z,12.67
2024-05-09T22:18:11.746Z,12.66
2024-05-09T22:20:45.176Z,12.67
2024-05-09T22:23:15.931Z,12.63
2024-05-09T22:25:42.867Z,12.56
2024-05-09T22:28:17.188Z,12.54
2024-05-09T22:30:46.092Z,12.53
2024-05-09T22:33:22.310Z,12.54
2024-05-09T22:35:49.418Z,12.50
2024-05-09T22:38:15.968Z,12.42
2024-05-09T22:40:48.002Z,12.34
2024-05-09T22:43:24.827Z,12.25
2024-05-09T22:45:53.750Z,12.16
2024-05-09T22:48:21.561Z,12.10
2024-05-09T22:50:48.566Z,12.05
2024-05-09T22:53:15.547Z,11.97
2024-05-09T22:55:45.275Z,11.92
2024-05-09T22:58:11.985Z,11.92
2024-05-09T23:00:38.623Z,11.89
2024-05-09T23:03:16.571Z,11.88
2024-05-09T23:05:43.312Z,11.86
2024-05-09T23:08:10.612Z,11.85
2024-05-09T23:10:40.053Z,11.85
2024-05-09T23:13:07.972Z,11.79
2024-05-09T23:15:39.486Z,11.70
2024-05-09T23:18:07.269Z,11.63
2024-05-09T23:20:38.688Z,11.59
2024-05-09T23:23:10.022Z,11.54
2024-05-09T23:25:37.903Z,11.52
2024-05-09T23:28:07.841Z,11.48
2024-05-09T23:30:38.458Z,11.43
2024-05-09T23:33:14.894Z,11.38
2024-05-09T23:35:51.629Z,11.30
2024-05-09T23:38:20.897Z,11.25
2024-05-09T23:40:49.248Z,11.21
2024-05-09T23:43:15.839Z,11.18
2024-05-09T23:45:43.395Z,11.12
2024-05-09T23:48:13.241Z,11.09
2024-05-09T23:50:40.807Z,11.05
2024-05-09T23:53:10.178Z,10.96
2024-05-09T23:55:37.747Z,10.88
2024-05-09T23:58:08.339Z,10.87
